Aérodrome :
LOGIN :

S'inscrire | Disclaimer

   EN    FR    IT 

 










Légende :    VFR   VFR Marginal   IFR   IFR Intensif   IFR Très Intensif
Visi : 
Plafond : 
>= 8 km
>= 3000ft
5 à 8 km
1000 à 3000 ft
1500m à 5 km
500 à 1000 ft
800 à 1500m
200 à 500 ft
< 800m
< 200 ft
Symboles :   Orages  Brouillard  Fortes neiges  Fortes précipitations  Vent > 20 kt
SIGMETs :   Divers  Orages  Givrage  Turbulence  Onde Orograph.  Cendres Volcan.






- Altitude de l'aérodrome : 686 ft


LYKV - Ladevci

DERNIER METAR :
  • 270730Z VRB02KT 9999 FEW060 18/12 Q1018 NOSIG

METARs EXPIRÉS :
  • 270700Z 00000KT CAVOK 17/13 Q1018 NOSIG
  • 270630Z 00000KT CAVOK 16/13 Q1018 NOSIG
  • 270600Z VRB01KT CAVOK 13/12 Q1018 NOSIG
  • 270530Z 00000KT CAVOK 12/11 Q1018 NOSIG
  • 270500Z 00000KT 7000 NSC 11/11 Q1018 NOSIG

TAF TAF LYKV
Valide du 27 à 06h jusqu'au 28 à 06h UTC


270500Z 2706/2806 10006KT 9999 SCT040 TX28/2713Z TN12/2804Z
PROB40
TEMPO 2714/2718 5000 TSRA SCT030CB SCT040
TEMPO 2721/2806 4000 TSRA SCT010 SCT027CB BKN040



MET'MAP, la Météo Aéronautique d'un coup d'oeil ! - Copyright ORBIFLY Décembre 2007 - Disclaimer

ORBIFLY MET'MAP TEAM :

Programmation & Développement : Alexandra Zaïnal
Sur une idée originale de : Baudouin d'Aumeries
Assistance à la programmation : Marc-Olivier Méhu
Soutien technique & logistique : Manuel Goepfert

Contact : metmap@orbifly.com




SOURCES & CREDITS :

   NOAA